Time;durP1;ratioP1;P1;durP2;ratioP2;P2;SDS_P1;SDS_P2;PMS_P1;PMS_P2;Temp;Humidity;BMP_temperature;BMP_pressure;BME280_temperature;BME280_humidity;BME280_pressure;Samples;Min_cycle;Max_cycle;Signal;HPM_P1;HPM_P2
2023/12/03 00:00:00;;;;;;;36.67;23.52;;;;;;;-0.19;100.00;101905.66;5090442;28;20024;-36
2023/12/03 00:02:26;;;;;;;31.15;22.02;;;;;;;-0.09;100.00;101917.97;5089855;28;20028;-36
2023/12/03 00:04:52;;;;;;;34.92;21.85;;;;;;;-0.03;100.00;101911.28;5090435;28;20103;-36
2023/12/03 00:07:19;;;;;;;37.55;24.40;;;;;;;-0.06;100.00;101901.75;5085522;28;20036;-36
2023/12/03 00:09:46;;;;;;;35.35;24.55;;;;;;;-0.01;100.00;101910.16;5075965;28;20056;-36
2023/12/03 00:12:11;;;;;;;31.08;21.90;;;;;;;0.09;100.00;101912.00;5076292;28;20016;-36
2023/12/03 00:14:37;;;;;;;31.77;23.65;;;;;;;0.01;100.00;101902.06;5075848;28;20534;-36
2023/12/03 00:17:02;;;;;;;32.70;23.33;;;;;;;0.08;100.00;101919.13;5076654;28;20060;-36
2023/12/03 00:19:27;;;;;;;31.50;22.80;;;;;;;0.12;100.00;101915.22;5076076;28;20385;-36
2023/12/03 00:21:53;;;;;;;32.57;24.27;;;;;;;0.07;100.00;101914.81;5076126;28;20464;-36
2023/12/03 00:24:19;;;;;;;32.70;23.13;;;;;;;0.12;100.00;101917.91;5076296;28;20051;-36
2023/12/03 00:26:44;;;;;;;29.33;22.90;;;;;;;0.14;100.00;101918.59;5075730;28;20063;-36
2023/12/03 00:29:13;;;;;;;32.37;23.33;;;;;;;0.16;100.00;101927.28;5075915;28;20111;-36
2023/12/03 00:31:38;;;;;;;30.27;21.58;;;;;;;0.14;100.00;101923.06;5076208;28;20346;-36
2023/12/03 00:34:04;;;;;;;29.33;21.08;;;;;;;0.15;100.00;101930.94;5075805;28;20040;-36
2023/12/03 00:36:29;;;;;;;28.90;21.65;;;;;;;0.19;100.00;101924.34;5076044;28;20036;-36
2023/12/03 00:38:56;;;;;;;29.37;20.57;;;;;;;0.18;100.00;101925.31;5076325;28;20435;-36
2023/12/03 00:41:21;;;;;;;28.90;21.10;;;;;;;0.13;100.00;101916.91;5075970;28;20036;-36
2023/12/03 00:43:46;;;;;;;28.17;20.30;;;;;;;0.25;100.00;101910.50;5075394;28;20028;-36
2023/12/03 00:46:12;;;;;;;29.13;21.43;;;;;;;0.31;100.00;101926.91;5075616;28;20032;-36
2023/12/03 00:48:39;;;;;;;30.10;21.30;;;;;;;0.31;100.00;101916.25;5075281;28;20063;-36
2023/12/03 00:51:04;;;;;;;31.27;23.15;;;;;;;0.29;100.00;101915.53;5075154;28;20165;-36
2023/12/03 00:53:30;;;;;;;28.67;20.50;;;;;;;0.25;100.00;101907.84;5075956;28;20107;-36
2023/12/03 00:55:55;;;;;;;30.43;21.20;;;;;;;0.34;100.00;101913.31;5075570;28;20135;-36
2023/12/03 00:58:21;;;;;;;28.43;20.43;;;;;;;0.38;100.00;101920.88;5075291;28;20472;-36
2023/12/03 01:00:46;;;;;;;27.08;19.63;;;;;;;0.41;100.00;101919.78;5075594;28;20026;-36
2023/12/03 01:03:11;;;;;;;26.10;19.17;;;;;;;0.49;100.00;101918.09;5075276;28;20021;-36
2023/12/03 01:05:37;;;;;;;23.80;17.73;;;;;;;0.48;100.00;101927.03;5075843;28;20127;-36
2023/12/03 01:08:02;;;;;;;27.07;19.47;;;;;;;0.43;100.00;101923.13;5073686;28;20056;-36
2023/12/03 01:10:27;;;;;;;26.03;18.57;;;;;;;0.37;100.00;101910.38;5075622;28;20032;-36
2023/12/03 01:12:53;;;;;;;26.37;20.07;;;;;;;0.29;100.00;101907.56;5075094;28;20020;-36
2023/12/03 01:15:18;;;;;;;24.03;18.07;;;;;;;0.44;100.00;101919.47;5075024;28;20052;-36
2023/12/03 01:17:44;;;;;;;24.13;18.73;;;;;;;0.44;100.00;101928.31;5075017;28;20032;-36
2023/12/03 01:20:10;;;;;;;25.30;19.30;;;;;;;0.46;100.00;101937.00;5073921;28;20111;-36
2023/12/03 01:22:35;;;;;;;23.90;18.33;;;;;;;0.47;100.00;101940.50;5075660;28;20024;-36
2023/12/03 01:25:01;;;;;;;23.30;18.47;;;;;;;0.47;100.00;101930.69;5075131;28;20113;-36
2023/12/03 01:27:26;;;;;;;24.73;18.90;;;;;;;0.41;100.00;101922.44;5075117;28;20539;-36
2023/12/03 01:29:51;;;;;;;21.23;17.47;;;;;;;0.45;100.00;101932.66;5074751;28;20024;-36
2023/12/03 01:32:17;;;;;;;21.33;16.90;;;;;;;0.47;100.00;101936.00;5074349;28;20040;-36
2023/12/03 01:34:42;;;;;;;24.90;19.50;;;;;;;0.44;100.00;101936.31;5075089;28;20059;-36
2023/12/03 01:37:07;;;;;;;21.70;17.07;;;;;;;0.50;100.00;101940.22;5075074;28;20025;-36
2023/12/03 01:39:33;;;;;;;22.17;18.30;;;;;;;0.41;100.00;101935.72;5075007;28;20048;-36
2023/12/03 01:41:58;;;;;;;23.17;18.50;;;;;;;0.38;100.00;101933.34;5074779;28;20020;-36
2023/12/03 01:44:24;;;;;;;22.87;16.67;;;;;;;0.38;100.00;101933.34;5074182;28;20078;-36
2023/12/03 01:46:50;;;;;;;22.50;17.47;;;;;;;0.37;100.00;101942.31;5074188;28;20029;-36
2023/12/03 01:49:16;;;;;;;23.35;18.17;;;;;;;0.33;100.00;101943.56;5074811;28;20031;-36
2023/12/03 01:51:42;;;;;;;21.63;17.88;;;;;;;0.33;100.00;101946.22;5074863;28;20024;-36
2023/12/03 01:54:08;;;;;;;21.75;17.58;;;;;;;0.31;100.00;101949.03;5074206;28;20028;-36
2023/12/03 01:56:33;;;;;;;19.88;16.05;;;;;;;0.31;100.00;101950.84;5074507;28;20469;-36
2023/12/03 01:59:00;;;;;;;22.07;17.77;;;;;;;0.31;100.00;101956.16;5072844;28;20024;-36
2023/12/03 02:01:25;;;;;;;;;;;;;;;0.37;100.00;101950.28;5075425;28;20029;-36
2023/12/03 02:03:50;;;;;;;22.13;16.55;;;;;;;0.24;100.00;101946.06;5074601;28;20010;-36
2023/12/03 02:06:16;;;;;;;18.53;15.43;;;;;;;0.34;100.00;101951.41;5074626;28;20384;-36
2023/12/03 02:08:42;;;;;;;21.45;16.70;;;;;;;0.35;100.00;101952.25;5072693;28;20031;-36
2023/12/03 02:11:07;;;;;;;23.10;18.13;;;;;;;0.26;100.00;101945.94;5073945;28;20116;-36
2023/12/03 02:13:36;;;;;;;20.77;16.20;;;;;;;0.33;100.00;101954.19;5074144;28;20056;-36
2023/12/03 02:16:01;;;;;;;22.48;17.55;;;;;;;0.22;100.00;101941.84;5074057;28;20094;-36
2023/12/03 02:18:27;;;;;;;21.40;17.80;;;;;;;0.28;100.00;101949.28;5074401;28;20444;-36
2023/12/03 02:20:54;;;;;;;23.13;16.23;;;;;;;0.25;100.00;101957.56;5074397;28;20028;-36
2023/12/03 02:23:20;;;;;;;20.98;16.33;;;;;;;0.22;100.00;101953.34;5073518;28;20274;-36
2023/12/03 02:25:46;;;;;;;24.00;17.33;;;;;;;0.21;100.00;101961.47;5073536;28;20032;-36
2023/12/03 02:28:11;;;;;;;23.98;16.70;;;;;;;0.15;100.00;101954.88;5073978;28;20376;-36
2023/12/03 02:30:37;;;;;;;21.33;16.57;;;;;;;0.17;100.00;101963.53;5073500;28;20123;-36
2023/12/03 02:33:02;;;;;;;20.70;16.00;;;;;;;0.09;100.00;101946.56;5073723;28;20111;-36
2023/12/03 02:35:28;;;;;;;20.23;15.52;;;;;;;0.10;100.00;101965.06;5073598;28;20453;-36
2023/12/03 02:37:53;;;;;;;21.02;16.02;;;;;;;0.15;100.00;101972.66;5074432;28;20033;-36
2023/12/03 02:40:19;;;;;;;21.43;17.00;;;;;;;0.09;100.00;101971.34;5074088;28;20028;-36
2023/12/03 02:42:44;;;;;;;20.03;14.67;;;;;;;0.13;100.00;101967.44;5073561;28;20099;-36
2023/12/03 02:45:10;;;;;;;21.67;16.43;;;;;;;-0.01;100.00;101951.84;5073222;28;20484;-36
2023/12/03 02:47:35;;;;;;;24.17;16.73;;;;;;;0.03;100.00;101971.91;5073799;28;20036;-36
2023/12/03 02:50:01;;;;;;;23.63;17.70;;;;;;;0.00;100.00;101958.88;5073434;28;20025;-36
2023/12/03 02:52:26;;;;;;;23.75;16.48;;;;;;;0.03;100.00;101968.41;5073193;28;20507;-36
2023/12/03 02:54:53;;;;;;;22.67;16.98;;;;;;;-0.01;100.00;101962.50;5073924;28;20024;-36
2023/12/03 02:57:18;;;;;;;23.95;17.02;;;;;;;-0.02;100.00;101960.81;5073323;28;20051;-36
2023/12/03 02:59:43;;;;;;;25.47;18.87;;;;;;;-0.08;100.00;101951.56;5073386;28;20099;-35
2023/12/03 03:02:09;;;;;;;25.63;17.90;;;;;;;-0.03;100.00;101959.97;5073693;28;20031;-36
2023/12/03 03:04:34;;;;;;;24.27;17.87;;;;;;;-0.10;100.00;101950.00;5073327;28;20103;-36
2023/12/03 03:06:59;;;;;;;25.57;18.57;;;;;;;-0.04;100.00;101963.63;5073929;28;20530;-36
2023/12/03 03:09:25;;;;;;;24.67;18.20;;;;;;;-0.16;100.00;101946.06;5073375;28;20032;-36
2023/12/03 03:11:52;;;;;;;23.80;17.73;;;;;;;-0.03;100.00;101959.16;5073635;28;20112;-36
2023/12/03 03:14:17;;;;;;;24.85;18.42;;;;;;;0.02;100.00;101961.41;5073251;28;20086;-36
2023/12/03 03:16:42;;;;;;;26.43;18.27;;;;;;;0.01;100.00;101962.38;5073424;28;20032;-36
2023/12/03 03:19:07;;;;;;;27.87;19.07;;;;;;;-0.03;100.00;101953.81;5072495;28;20411;-36
2023/12/03 03:21:40;;;;;;;27.37;19.37;;;;;;;0.04;100.00;101962.94;5073266;28;20427;-36
2023/12/03 03:24:06;;;;;;;25.75;18.42;;;;;;;0.01;100.00;101959.72;5072897;28;20033;-36
2023/12/03 03:26:31;;;;;;;24.00;17.88;;;;;;;0.03;100.00;101955.09;5073673;28;20032;-37
2023/12/03 03:28:57;;;;;;;24.85;17.67;;;;;;;0.01;100.00;101965.03;5073089;28;20522;-36
2023/12/03 03:31:22;;;;;;;25.40;19.07;;;;;;;-0.03;100.00;101957.31;5073615;28;20083;-36
2023/12/03 03:33:49;;;;;;;24.30;16.90;;;;;;;-0.03;100.00;101964.47;5073051;28;20033;-36
2023/12/03 03:36:14;;;;;;;25.95;16.77;;;;;;;-0.06;100.00;101959.41;5072959;28;20088;-36
2023/12/03 03:38:41;;;;;;;25.95;17.67;;;;;;;-0.06;100.00;101970.03;5073300;28;20058;-36
2023/12/03 03:41:07;;;;;;;25.27;17.63;;;;;;;-0.09;100.00;101960.53;5073248;28;20527;-36
2023/12/03 03:43:32;;;;;;;24.37;16.60;;;;;;;-0.11;100.00;101953.66;5075507;28;20028;-36
2023/12/03 03:45:58;;;;;;;22.07;16.00;;;;;;;-0.13;100.00;101968.91;5077028;28;20588;-36
2023/12/03 03:48:23;;;;;;;22.13;16.57;;;;;;;-0.17;100.00;101956.84;5076586;28;20498;-36
2023/12/03 03:50:48;;;;;;;22.43;16.40;;;;;;;-0.13;100.00;101963.59;5076448;28;20115;-36
2023/12/03 03:53:14;;;;;;;23.67;16.37;;;;;;;-0.22;100.00;101949.28;5076890;28;20594;-36
2023/12/03 03:55:39;;;;;;;25.27;16.67;;;;;;;-0.19;100.00;101964.13;5076436;28;20067;-36
2023/12/03 03:58:04;;;;;;;22.20;15.90;;;;;;;-0.18;100.00;101965.81;5077082;28;20028;-36
2023/12/03 04:00:30;;;;;;;20.23;14.70;;;;;;;-0.10;100.00;101964.16;5076196;28;20031;-36
2023/12/03 04:02:56;;;;;;;21.70;16.20;;;;;;;-0.17;100.00;101970.16;5076341;28;20029;-36
2023/12/03 04:05:22;;;;;;;20.38;15.27;;;;;;;-0.29;100.00;101967.59;5076657;28;20469;-36
2023/12/03 04:07:47;;;;;;;24.00;16.92;;;;;;;-0.31;100.00;101988.13;5076349;28;20089;-36
2023/12/03 04:10:13;;;;;;;23.58;17.27;;;;;;;-0.39;100.00;101977.31;5076393;28;20369;-36
2023/12/03 04:12:38;;;;;;;22.70;16.57;;;;;;;-0.37;100.00;101985.16;5076326;28;20029;-36
2023/12/03 04:15:05;;;;;;;22.30;15.40;;;;;;;-0.36;100.00;101976.19;5076229;28;20278;-36
2023/12/03 04:17:31;;;;;;;21.50;15.95;;;;;;;-0.40;100.00;101972.97;5076898;28;20020;-36
2023/12/03 04:19:56;;;;;;;22.40;15.83;;;;;;;-0.34;100.00;101983.09;5075917;28;20032;-36
2023/12/03 04:22:23;;;;;;;21.30;16.00;;;;;;;-0.32;100.00;101980.28;5076095;28;20111;-36
2023/12/03 04:24:48;;;;;;;21.23;15.68;;;;;;;-0.38;100.00;101984.31;5076238;28;20025;-36
2023/12/03 04:27:14;;;;;;;24.27;17.70;;;;;;;-0.47;100.00;101971.81;5076051;28;20040;-36
2023/12/03 04:29:39;;;;;;;21.77;15.67;;;;;;;-0.39;100.00;101985.31;5076762;28;20036;-36
2023/12/03 04:32:05;;;;;;;24.85;16.67;;;;;;;-0.48;100.00;101991.41;5075646;28;20020;-36
2023/12/03 04:34:30;;;;;;;24.05;17.08;;;;;;;-0.60;100.00;101972.00;5076370;28;20078;-36
2023/12/03 04:36:56;;;;;;;23.83;15.93;;;;;;;-0.46;100.00;102000.06;5075790;28;20423;-36
2023/12/03 04:39:21;;;;;;;21.77;16.23;;;;;;;-0.48;100.00;102001.19;5075723;28;20025;-36
2023/12/03 04:41:46;;;;;;;23.60;17.27;;;;;;;-0.59;100.00;101994.94;5076070;28;20036;-36
2023/12/03 04:44:12;;;;;;;21.60;15.73;;;;;;;-0.52;100.00;102000.59;5076203;28;20035;-36
2023/12/03 04:46:43;;;;;;;23.17;16.30;;;;;;;-0.55;100.00;102001.69;5076473;28;20529;-36
2023/12/03 04:49:08;;;;;;;24.02;16.77;;;;;;;-0.47;100.00;102005.53;5076328;28;20054;-36
2023/12/03 04:51:34;;;;;;;23.00;16.33;;;;;;;-0.54;100.00;102003.41;5076105;28;20033;-36
2023/12/03 04:54:00;;;;;;;23.80;16.43;;;;;;;-0.57;100.00;101997.50;5075414;28;20027;-36
2023/12/03 04:56:25;;;;;;;22.15;16.42;;;;;;;-0.65;100.00;101986.66;5075550;28;20044;-36
2023/12/03 04:58:50;;;;;;;23.95;16.25;;;;;;;-0.67;100.00;101991.28;5075123;28;20464;-36
2023/12/03 05:01:19;;;;;;;23.73;16.30;;;;;;;-0.65;100.00;101999.94;5075645;28;20021;-36
2023/12/03 05:03:45;;;;;;;21.98;15.00;;;;;;;-0.61;100.00;102006.69;5075483;28;20273;-36
2023/12/03 05:06:11;;;;;;;28.67;17.48;;;;;;;-0.71;100.00;102003.97;5075187;28;20036;-36
2023/12/03 05:08:36;;;;;;;26.75;18.00;;;;;;;-0.73;100.00;102002.41;5075177;28;20044;-36
2023/12/03 05:11:04;;;;;;;23.57;16.67;;;;;;;-0.73;100.00;102007.72;5075221;28;20025;-36
2023/12/03 05:13:29;;;;;;;25.80;17.33;;;;;;;-0.80;100.00;101996.75;5075884;28;20051;-36
2023/12/03 05:15:55;;;;;;;22.52;15.85;;;;;;;-0.73;100.00;102011.22;5075550;28;20453;-36
2023/12/03 05:18:20;;;;;;;27.57;18.57;;;;;;;-0.77;100.00;102020.44;5074774;28;20450;-36
2023/12/03 05:20:45;;;;;;;23.73;16.80;;;;;;;-0.84;100.00;102001.47;5075263;28;20403;-36
2023/12/03 05:23:12;;;;;;;24.47;16.17;;;;;;;-0.84;100.00;102005.97;5074681;28;20468;-36
2023/12/03 05:25:37;;;;;;;26.20;17.45;;;;;;;-0.84;100.00;102004.13;5074866;28;20051;-36
2023/12/03 05:28:03;;;;;;;24.48;16.95;;;;;;;-0.82;100.00;102009.34;5074772;28;20099;-34
2023/12/03 05:30:29;;;;;;;24.85;18.00;;;;;;;-0.92;100.00;102003.13;5074707;28;20098;-36
2023/12/03 05:32:54;;;;;;;26.87;17.13;;;;;;;-0.92;100.00;102017.22;5074988;28;20025;-36
2023/12/03 05:35:19;;;;;;;26.70;17.30;;;;;;;-1.00;100.00;101994.94;5075495;28;20060;-36
2023/12/03 05:37:45;;;;;;;28.10;18.53;;;;;;;-0.99;100.00;102013.38;5074527;28;20036;-36
2023/12/03 05:40:11;;;;;;;27.70;18.63;;;;;;;-0.96;100.00;102009.66;5074812;28;20460;-36
2023/12/03 05:42:36;;;;;;;25.27;17.85;;;;;;;-1.05;100.00;102006.78;5075055;28;20473;-36
2023/12/03 05:45:03;;;;;;;29.75;19.45;;;;;;;-1.00;100.00;102022.31;5074743;28;20028;-36
2023/12/03 05:47:29;;;;;;;27.67;18.25;;;;;;;-0.98;100.00;102019.53;5074117;28;20020;-36
2023/12/03 05:49:56;;;;;;;27.35;19.02;;;;;;;-1.08;100.00;102011.50;5074827;28;20030;-36
2023/12/03 05:52:22;;;;;;;26.75;17.95;;;;;;;-1.00;100.00;102022.31;5074248;28;20033;-36
2023/12/03 05:54:48;;;;;;;28.13;19.38;;;;;;;-1.07;100.00;102021.16;5074219;28;20033;-36
2023/12/03 05:57:13;;;;;;;32.95;20.45;;;;;;;-1.09;100.00;102031.03;5074698;28;20052;-36
2023/12/03 05:59:38;;;;;;;31.50;20.27;;;;;;;-1.05;100.00;102040.44;5074259;28;20048;-36
2023/12/03 06:02:04;;;;;;;30.90;19.63;;;;;;;-1.22;100.00;102022.41;5074175;28;20108;-36
2023/12/03 06:04:30;;;;;;;29.75;20.33;;;;;;;-1.27;100.00;102014.81;5074024;28;20043;-36
2023/12/03 06:06:55;;;;;;;34.08;20.05;;;;;;;-1.20;100.00;102034.59;5073889;28;20036;-36
2023/12/03 06:09:20;;;;;;;29.53;18.97;;;;;;;-1.15;100.00;102034.22;5074318;28;20032;-36
2023/12/03 06:11:46;;;;;;;29.73;19.63;;;;;;;-1.24;100.00;102024.34;5073764;28;20039;-36
2023/12/03 06:14:11;;;;;;;35.00;20.67;;;;;;;-1.15;100.00;102042.19;5073970;28;20059;-36
2023/12/03 06:16:37;;;;;;;32.55;20.88;;;;;;;-1.21;100.00;102040.03;5073919;28;20074;-36
2023/12/03 06:19:03;;;;;;;29.13;19.30;;;;;;;-1.17;100.00;102046.75;5073832;28;20119;-36
2023/12/03 06:21:29;;;;;;;26.63;17.70;;;;;;;-1.10;100.00;102050.59;5073546;28;20060;-36
2023/12/03 06:23:54;;;;;;;29.65;19.92;;;;;;;-1.18;100.00;102045.06;5073484;28;20310;-36
2023/12/03 06:26:20;;;;;;;32.30;19.73;;;;;;;-1.33;100.00;102026.75;5074306;28;20067;-36
2023/12/03 06:28:46;;;;;;;;;;;;;;;-1.13;100.00;102051.69;5073864;28;20552;-36
2023/12/03 06:31:12;;;;;;;26.85;17.42;;;;;;;-1.24;100.00;102040.25;5074235;28;20007;-36
2023/12/03 06:33:37;;;;;;;28.40;18.17;;;;;;;-1.21;100.00;102054.13;5073817;28;20039;-36
2023/12/03 06:36:03;;;;;;;28.60;19.30;;;;;;;-1.24;100.00;102061.50;5073579;28;20332;-36
2023/12/03 06:38:28;;;;;;;27.63;18.73;;;;;;;-1.24;100.00;102057.03;5073839;28;20082;-36
2023/12/03 06:40:53;;;;;;;26.83;17.83;;;;;;;-1.22;100.00;102051.59;5074160;28;20029;-36
2023/12/03 06:43:19;;;;;;;29.77;19.40;;;;;;;-1.29;100.00;102043.28;5073490;28;20081;-36
2023/12/03 06:45:44;;;;;;;29.87;18.50;;;;;;;-1.30;100.00;102045.09;5074162;28;20099;-36
2023/12/03 06:48:09;;;;;;;30.37;18.27;;;;;;;-1.24;100.00;102043.75;5073548;28;20133;-36
2023/12/03 06:50:35;;;;;;;27.33;19.20;;;;;;;-1.43;100.00;102031.13;5073913;28;20029;-36
2023/12/03 06:53:00;;;;;;;27.73;18.30;;;;;;;-1.26;100.00;102047.53;5073432;28;20021;-36
2023/12/03 06:55:26;;;;;;;28.75;18.35;;;;;;;-1.29;100.00;102040.63;5073456;28;20025;-36
2023/12/03 06:57:51;;;;;;;27.30;18.20;;;;;;;-1.26;100.00;102047.53;5073992;28;20480;-36
2023/12/03 07:00:17;;;;;;;26.77;17.20;;;;;;;-1.46;100.00;102004.88;5073675;28;20063;-36
2023/12/03 07:02:43;;;;;;;23.42;15.93;;;;;;;-1.12;100.00;102039.28;5073286;28;20081;-36
2023/12/03 07:05:08;;;;;;;26.55;17.35;;;;;;;-1.47;100.00;101997.84;5074221;28;20043;-36
2023/12/03 07:07:34;;;;;;;25.67;17.47;;;;;;;-1.19;100.00;102043.38;5073306;28;20090;-36
2023/12/03 07:09:59;;;;;;;27.03;15.90;;;;;;;-1.15;100.00;102048.31;5074159;28;20330;-36
2023/12/03 07:12:24;;;;;;;25.27;17.33;;;;;;;-1.18;100.00;102037.09;5073853;28;20032;-36
2023/12/03 07:14:50;;;;;;;26.63;17.00;;;;;;;-1.39;100.00;102010.50;5073770;28;20068;-36
2023/12/03 07:17:15;;;;;;;27.07;17.37;;;;;;;-1.18;100.00;102040.59;5073775;28;20020;-36
2023/12/03 07:19:46;;;;;;;27.83;17.10;;;;;;;-1.35;100.00;102028.72;5077267;28;20591;-36
2023/12/03 07:22:12;;;;;;;25.38;17.60;;;;;;;-1.27;100.00;102041.34;5076952;28;20062;-36
2023/12/03 07:24:39;;;;;;;23.85;16.48;;;;;;;-1.32;100.00;102049.72;5077159;28;20381;-36
2023/12/03 07:27:05;;;;;;;24.52;16.77;;;;;;;-1.44;100.00;102031.28;5077704;28;20043;-36
2023/12/03 07:29:30;;;;;;;26.15;17.35;;;;;;;-1.33;100.00;102061.25;5076478;28;20099;-36
2023/12/03 07:31:55;;;;;;;24.77;14.87;;;;;;;-1.27;100.00;102045.81;5076919;28;20115;-36
2023/12/03 07:34:21;;;;;;;25.67;16.77;;;;;;;-1.33;100.00;102041.84;5076918;28;20031;-36
2023/12/03 07:36:47;;;;;;;25.83;16.83;;;;;;;-1.36;100.00;102050.06;5076960;28;20361;-36
2023/12/03 07:39:13;;;;;;;29.00;17.25;;;;;;;-1.24;100.00;102061.50;5076825;28;20038;-36
2023/12/03 07:41:38;;;;;;;25.90;16.65;;;;;;;-1.31;100.00;102051.38;5076831;28;20420;-37
2023/12/03 07:44:04;;;;;;;27.60;18.07;;;;;;;-1.28;100.00;102060.06;5076746;28;20036;-36
2023/12/03 07:46:29;;;;;;;26.23;16.60;;;;;;;-1.32;100.00;102068.28;5077051;28;20516;-36
2023/12/03 07:48:54;;;;;;;24.73;16.50;;;;;;;-1.32;100.00;102064.75;5076398;28;20051;-36
2023/12/03 07:51:20;;;;;;;24.83;15.90;;;;;;;-1.24;100.00;102061.50;5077246;28;20025;-36
2023/12/03 07:53:45;;;;;;;22.02;15.02;;;;;;;-1.27;100.00;102051.13;5076625;28;20107;-36
2023/12/03 07:56:11;;;;;;;28.10;17.60;;;;;;;-1.39;100.00;102045.84;5076424;28;20537;-36
2023/12/03 07:58:36;;;;;;;24.43;16.23;;;;;;;-1.21;100.00;102061.25;5076579;28;20452;-36
2023/12/03 08:01:03;;;;;;;24.87;16.07;;;;;;;-1.26;100.00;102052.84;5076370;28;20066;-36
2023/12/03 08:03:30;;;;;;;23.70;17.13;;;;;;;-1.30;100.00;102052.22;5076630;28;20028;-36
2023/12/03 08:05:56;;;;;;;26.17;16.35;;;;;;;-1.15;100.00;102066.06;5077192;28;20051;-36
2023/12/03 08:08:21;;;;;;;25.20;16.47;;;;;;;-1.14;100.00;102067.75;5076102;28;20025;-36
2023/12/03 08:10:46;;;;;;;25.60;16.87;;;;;;;-1.16;100.00;102075.84;5076866;28;20082;-36
2023/12/03 08:13:12;;;;;;;23.57;15.50;;;;;;;-1.10;100.00;102067.38;5075022;28;20027;-36
2023/12/03 08:15:37;;;;;;;25.33;16.97;;;;;;;-1.16;100.00;102059.91;5076937;28;20401;-36
2023/12/03 08:18:03;;;;;;;22.93;15.60;;;;;;;-1.04;100.00;102076.66;5076192;28;20048;-36
2023/12/03 08:20:28;;;;;;;22.23;16.08;;;;;;;-1.13;100.00;102070.25;5076434;28;20021;-36
2023/12/03 08:22:54;;;;;;;23.00;15.07;;;;;;;-1.12;100.00;102087.91;5076001;28;20082;-36
2023/12/03 08:25:19;;;;;;;24.47;17.23;;;;;;;-1.04;100.00;102085.44;5076663;28;20100;-36
2023/12/03 08:27:45;;;;;;;24.57;16.17;;;;;;;-0.95;100.00;102091.00;5075944;28;20036;-36
2023/12/03 08:30:11;;;;;;;23.50;15.80;;;;;;;-0.95;100.00;102083.03;5075207;28;20024;-36
2023/12/03 08:32:36;;;;;;;24.40;15.60;;;;;;;-1.04;100.00;102047.44;5076457;28;20025;-36
2023/12/03 08:35:01;;;;;;;24.70;15.80;;;;;;;-0.82;100.00;102079.25;5075570;28;20103;-36
2023/12/03 08:37:27;;;;;;;22.07;14.90;;;;;;;-0.68;100.00;102087.84;5076033;28;20166;-36
2023/12/03 08:39:53;;;;;;;25.30;15.60;;;;;;;-0.67;100.00;102089.56;5075859;28;20024;-36
2023/12/03 08:42:19;;;;;;;25.38;16.02;;;;;;;-0.70;100.00;102081.84;5075993;28;20032;-36
2023/12/03 08:48:09;;;;;;;22.92;14.95;;;;;;;-0.77;100.00;102084.19;5043258;28;20477;-36
2023/12/03 08:50:34;;;;;;;23.53;16.13;;;;;;;-0.69;100.00;102104.78;5073959;28;20041;-36
2023/12/03 08:52:59;;;;;;;23.53;15.93;;;;;;;-0.71;100.00;102091.63;5076349;28;20047;-36
2023/12/03 08:55:25;;;;;;;24.10;16.20;;;;;;;-0.59;100.00;102105.69;5075470;28;20480;-36
2023/12/03 08:57:50;;;;;;;22.58;15.73;;;;;;;-0.49;100.00;102106.63;5075176;28;20049;-36
2023/12/03 09:00:17;;;;;;;21.13;15.60;;;;;;;-0.42;100.00;102105.16;5075407;28;20432;-36
2023/12/03 09:02:46;;;;;;;22.52;15.50;;;;;;;-0.36;100.00;102104.63;5076105;28;20020;-36
2023/12/03 09:05:11;;;;;;;21.67;15.55;;;;;;;-0.32;100.00;102099.91;5076356;28;20029;-36
2023/12/03 09:07:37;;;;;;;24.13;15.68;;;;;;;-0.19;100.00;102107.69;5075498;28;20388;-36
2023/12/03 09:10:03;;;;;;;23.90;15.83;;;;;;;-0.24;100.00;102096.56;5075289;28;20054;-36
2023/12/03 09:12:29;;;;;;;22.83;14.93;;;;;;;-0.22;100.00;102084.84;5074837;28;20043;-36
2023/12/03 09:14:54;;;;;;;19.63;14.20;;;;;;;-0.02;100.00;102107.09;5075083;28;20032;-36
2023/12/03 09:17:19;;;;;;;21.07;14.37;;;;;;;-0.01;100.00;102116.75;5075225;28;20057;-36
2023/12/03 09:19:45;;;;;;;19.03;13.40;;;;;;;-0.01;100.00;102116.75;5075589;28;20507;-36
2023/12/03 09:22:10;;;;;;;21.83;14.73;;;;;;;0.01;100.00;102114.81;5075797;28;20116;-36
2023/12/03 09:24:35;;;;;;;20.17;14.27;;;;;;;0.02;100.00;102119.16;5074635;28;20025;-36
2023/12/03 09:27:01;;;;;;;19.97;14.20;;;;;;;-0.14;100.00;102095.69;5074639;28;20055;-36
2023/12/03 09:29:26;;;;;;;19.80;14.17;;;;;;;-0.06;100.00;102118.94;5074524;28;20036;-36
2023/12/03 09:31:51;;;;;;;18.27;13.70;;;;;;;-0.04;100.00;102117.03;5075238;28;20372;-36
2023/12/03 09:34:17;;;;;;;19.80;13.20;;;;;;;-0.07;100.00;102111.97;5074717;28;20055;-36
2023/12/03 09:36:42;;;;;;;18.57;13.13;;;;;;;0.06;100.00;102111.75;5074592;28;20435;-36
2023/12/03 09:39:08;;;;;;;22.80;13.73;;;;;;;0.07;100.00;102108.97;5074882;28;20067;-36
2023/12/03 09:41:41;;;;;;;18.27;12.67;;;;;;;0.14;100.00;102110.09;5074621;28;20028;-36
2023/12/03 09:44:39;;;;;;;20.73;13.70;;;;;;;0.13;100.00;102112.91;5074988;28;20048;-36
2023/12/03 09:47:06;;;;;;;19.95;13.85;;;;;;;0.07;100.00;102113.44;5074460;28;20046;-36
2023/12/03 09:49:31;;;;;;;19.25;12.68;;;;;;;0.06;100.00;102098.47;5073171;28;20032;-36
2023/12/03 09:52:00;;;;;;;17.63;13.03;;;;;;;0.13;100.00;102100.44;5074378;28;20032;-36
2023/12/03 09:54:25;;;;;;;19.40;13.18;;;;;;;0.10;100.00;102091.88;5074251;28;20384;-36
2023/12/03 09:56:55;;;;;;;17.40;12.63;;;;;;;0.16;100.00;102105.50;5074692;28;20056;-36
2023/12/03 09:59:21;;;;;;;18.23;12.50;;;;;;;0.19;100.00;102105.22;5074226;28;20036;-36
2023/12/03 10:01:48;;;;;;;20.13;13.32;;;;;;;0.16;100.00;102104.69;5073899;28;20036;-36
2023/12/03 10:04:14;;;;;;;17.35;12.73;;;;;;;0.16;100.00;102107.34;5073866;28;20121;-36
2023/12/03 10:06:43;;;;;;;18.23;12.47;;;;;;;0.13;100.00;102096.94;5074376;28;20059;-36
2023/12/03 10:09:08;;;;;;;17.90;12.27;;;;;;;0.22;100.00;102106.81;5073677;28;20773;-36
2023/12/03 10:11:39;;;;;;;17.17;12.90;;;;;;;0.19;100.00;102110.56;5074374;28;20062;-36
2023/12/03 10:14:08;;;;;;;19.08;12.38;;;;;;;0.21;100.00;102097.97;5073727;28;20074;-36
2023/12/03 10:16:33;;;;;;;17.65;12.15;;;;;;;0.32;100.00;102090.88;5073925;28;20046;-36
2023/12/03 10:18:59;;;;;;;17.92;11.93;;;;;;;0.34;100.00;102096.91;5074649;28;20028;-36
2023/12/03 10:21:24;;;;;;;17.40;12.77;;;;;;;0.32;100.00;102088.22;5073460;28;20556;-36
2023/12/03 10:23:58;;;;;;;17.45;12.13;;;;;;;0.32;100.00;102072.25;5074082;28;20036;-36
2023/12/03 10:26:23;;;;;;;17.88;13.50;;;;;;;0.30;100.00;102063.56;5074116;28;20082;-36
2023/12/03 10:28:48;;;;;;;17.73;12.20;;;;;;;0.42;100.00;102078.44;5073787;28;20024;-36
2023/12/03 10:31:15;;;;;;;16.17;12.30;;;;;;;0.33;100.00;102065.94;5073852;28;20108;-36
2023/12/03 10:33:44;;;;;;;16.90;12.38;;;;;;;0.29;100.00;102065.38;5074463;28;20447;-36
2023/12/03 10:36:11;;;;;;;15.98;11.77;;;;;;;0.42;100.00;102084.63;5073553;28;20032;-36
2023/12/03 10:38:37;;;;;;;17.52;12.50;;;;;;;0.40;100.00;102064.44;5073585;28;20024;-36
2023/12/03 10:41:08;;;;;;;16.02;11.20;;;;;;;0.43;100.00;102070.31;5073638;28;20500;-35
2023/12/03 10:43:35;;;;;;;17.77;12.50;;;;;;;0.39;100.00;102073.38;5073566;28;20392;-36
2023/12/03 10:46:03;;;;;;;14.88;11.52;;;;;;;0.39;100.00;102065.41;5073773;28;20024;-36
2023/12/03 10:48:30;;;;;;;17.20;11.88;;;;;;;0.38;100.00;102061.06;5073181;28;20028;-36
2023/12/03 10:51:04;;;;;;;15.65;11.80;;;;;;;0.25;100.00;102037.38;5073160;28;20020;-35
2023/12/03 10:53:33;;;;;;;16.52;11.30;;;;;;;0.47;100.00;102063.75;5073434;28;20029;-36
2023/12/03 10:56:04;;;;;;;15.43;11.52;;;;;;;0.51;100.00;102054.53;5072910;28;20450;-36
2023/12/03 10:58:33;;;;;;;16.67;12.18;;;;;;;0.59;100.00;102059.19;5073635;28;20123;-36
2023/12/03 11:01:08;;;;;;;15.68;10.95;;;;;;;0.63;100.00;102055.25;5073338;28;20028;-36